Time;durP1;ratioP1;P1;durP2;ratioP2;P2;SDS_P1;SDS_P2;PMS_P1;PMS_P2;Temp;Humidity;BMP_temperature;BMP_pressure;BME280_temperature;BME280_humidity;BME280_pressure;Samples;Min_cycle;Max_cycle;Signal;HPM_P1;HPM_P2
2023/10/26 00:01:57;;;;;;;0.22;0.15;;;;;;;;;;5076582;28;20664;-87
2023/10/26 00:04:22;;;;;;;0.20;0.20;;;;;;;;;;5075113;28;20033;-87
2023/10/26 00:06:47;;;;;;;1.60;0.50;;;;;;;;;;5073582;28;20024;-85
2023/10/26 00:09:13;;;;;;;0.38;0.35;;;;;;;;;;5084508;28;20025;-86
2023/10/26 00:11:38;;;;;;;0.35;0.35;;;;;;;;;;5057103;28;20017;-85
2023/10/26 00:14:03;;;;;;;0.20;0.20;;;;;;;;;;5064331;28;20100;-86
2023/10/26 00:16:29;;;;;;;1.00;0.82;;;;;;;;;;5068452;28;20016;-87
2023/10/26 00:18:55;;;;;;;0.30;0.30;;;;;;;;;;5066077;28;20042;-86
2023/10/26 00:21:21;;;;;;;2.00;0.30;;;;;;;;;;5069058;28;20035;-86
2023/10/26 00:23:46;;;;;;;0.30;0.30;;;;;;;;;;5079347;28;20057;-85
2023/10/26 00:26:12;;;;;;;0.50;0.50;;;;;;;;;;5065326;28;20482;-88
2023/10/26 00:28:37;;;;;;;0.25;0.25;;;;;;;;;;5052012;28;20028;-86
2023/10/26 00:31:03;;;;;;;0.35;0.35;;;;;;;;;;5083090;28;20021;-86
2023/10/26 00:33:28;;;;;;;1.60;1.00;;;;;;;;;;5073789;28;20044;-87
2023/10/26 00:35:54;;;;;;;0.70;0.70;;;;;;;;;;5072381;28;20037;-86
2023/10/26 00:38:19;;;;;;;2.00;0.80;;;;;;;;;;5073220;28;20016;-88
2023/10/26 00:40:44;;;;;;;0.60;0.55;;;;;;;;;;5069165;28;20100;-86
2023/10/26 00:43:21;;;;;;;2.10;0.98;;;;;;;;;;5075159;28;20032;-85
2023/10/26 00:45:49;;;;;;;3.70;0.70;;;;;;;;;;5067825;28;20056;-85
2023/10/26 00:48:14;;;;;;;0.40;0.38;;;;;;;;;;5049837;28;20478;-85
2023/10/26 00:50:41;;;;;;;0.30;0.30;;;;;;;;;;5073764;28;20032;-84
2023/10/26 00:53:07;;;;;;;0.38;0.38;;;;;;;;;;5053408;28;20513;-86
2023/10/26 00:55:32;;;;;;;0.30;0.30;;;;;;;;;;5041607;28;20067;-84
2023/10/26 00:57:58;;;;;;;0.30;0.30;;;;;;;;;;5073569;28;20032;-87
2023/10/26 01:01:02;;;;;;;0.55;0.55;;;;;;;;;;5051672;28;20032;-85
2023/10/26 01:04:14;;;;;;;0.32;0.32;;;;;;;;;;5050926;28;20070;-87
2023/10/26 01:07:00;;;;;;;0.28;0.28;;;;;;;;;;5057202;28;20082;-85
2023/10/26 01:09:26;;;;;;;1.08;0.40;;;;;;;;;;5067903;28;20183;-85
2023/10/26 01:11:51;;;;;;;4.50;0.75;;;;;;;;;;5041995;28;20103;-87
2023/10/26 01:14:17;;;;;;;0.55;0.40;;;;;;;;;;5066626;28;20021;-86
2023/10/26 01:16:42;;;;;;;0.30;0.30;;;;;;;;;;5071061;28;20032;-86
2023/10/26 01:19:09;;;;;;;0.30;0.30;;;;;;;;;;5077154;28;20029;-88
2023/10/26 01:21:51;;;;;;;0.40;0.40;;;;;;;;;;5048696;28;20029;-87
2023/10/26 01:24:17;;;;;;;1.17;0.60;;;;;;;;;;5065084;28;20114;-84
2023/10/26 01:26:42;;;;;;;0.30;0.30;;;;;;;;;;5056482;28;20062;-85
2023/10/26 01:29:08;;;;;;;0.30;0.30;;;;;;;;;;5076442;28;20025;-87
2023/10/26 01:31:33;;;;;;;0.50;0.50;;;;;;;;;;5071835;28;20024;-84
2023/10/26 01:33:58;;;;;;;0.47;0.40;;;;;;;;;;5066827;28;20020;-87
2023/10/26 01:36:25;;;;;;;0.50;0.50;;;;;;;;;;5069704;28;20029;-85
2023/10/26 01:38:51;;;;;;;0.25;0.25;;;;;;;;;;5074832;28;20029;-86
2023/10/26 01:41:16;;;;;;;0.40;0.40;;;;;;;;;;5056576;28;20064;-86
2023/10/26 01:43:41;;;;;;;0.30;0.30;;;;;;;;;;5075168;28;20058;-86
2023/10/26 01:46:07;;;;;;;2.63;0.45;;;;;;;;;;5053773;28;20074;-87
2023/10/26 01:48:32;;;;;;;0.40;0.40;;;;;;;;;;5064251;28;20025;-85
2023/10/26 01:50:57;;;;;;;0.57;0.43;;;;;;;;;;5066884;28;20016;-86
2023/10/26 01:53:23;;;;;;;0.57;0.50;;;;;;;;;;5059910;28;20025;-87
2023/10/26 01:55:49;;;;;;;0.43;0.43;;;;;;;;;;5056873;28;20049;-86
2023/10/26 01:58:15;;;;;;;0.25;0.25;;;;;;;;;;5053528;28;20043;-86
2023/10/26 02:00:41;;;;;;;0.50;0.45;;;;;;;;;;5090156;28;20397;-87
2023/10/26 02:03:06;;;;;;;0.52;0.52;;;;;;;;;;5055933;28;20079;-88
2023/10/26 02:05:32;;;;;;;0.73;0.43;;;;;;;;;;5074982;28;20494;-86
2023/10/26 02:07:58;;;;;;;0.47;0.47;;;;;;;;;;5059398;28;20025;-87
2023/10/26 02:10:29;;;;;;;0.95;0.55;;;;;;;;;;5071911;28;20049;-86
2023/10/26 02:12:55;;;;;;;0.45;0.45;;;;;;;;;;5064189;28;20083;-85
2023/10/26 02:15:20;;;;;;;0.50;0.50;;;;;;;;;;5056845;28;20029;-86
2023/10/26 02:17:46;;;;;;;0.90;0.50;;;;;;;;;;5063091;28;20032;-85
2023/10/26 02:20:11;;;;;;;0.50;0.50;;;;;;;;;;5063381;28;20537;-86
2023/10/26 02:22:36;;;;;;;0.15;0.15;;;;;;;;;;5058539;28;20037;-85
2023/10/26 02:25:02;;;;;;;0.30;0.30;;;;;;;;;;5056376;28;20025;-85
2023/10/26 02:27:27;;;;;;;0.35;0.35;;;;;;;;;;5064371;28;20025;-85
2023/10/26 02:29:52;;;;;;;0.30;0.30;;;;;;;;;;5074140;28;20032;-87
2023/10/26 02:32:18;;;;;;;0.30;0.30;;;;;;;;;;5078917;28;20024;-86
2023/10/26 02:34:43;;;;;;;0.40;0.40;;;;;;;;;;5061276;28;20027;-85
2023/10/26 02:37:09;;;;;;;0.47;0.35;;;;;;;;;;5058682;28;20035;-87
2023/10/26 02:39:34;;;;;;;0.50;0.50;;;;;;;;;;5069461;28;20023;-85
2023/10/26 02:41:59;;;;;;;0.68;0.30;;;;;;;;;;5061372;28;20024;-86
2023/10/26 02:44:25;;;;;;;0.43;0.43;;;;;;;;;;5061963;28;20057;-86
2023/10/26 02:46:50;;;;;;;0.75;0.35;;;;;;;;;;5080202;28;20028;-85
2023/10/26 02:49:16;;;;;;;0.52;0.20;;;;;;;;;;5054638;28;20032;-85
2023/10/26 02:51:41;;;;;;;0.40;0.40;;;;;;;;;;5061010;28;20044;-86
2023/10/26 02:54:06;;;;;;;0.40;0.40;;;;;;;;;;5060887;28;20122;-83
2023/10/26 02:56:32;;;;;;;0.20;0.20;;;;;;;;;;5064490;28;20024;-86
2023/10/26 02:58:57;;;;;;;0.17;0.17;;;;;;;;;;5045574;28;20020;-85
2023/10/26 03:01:22;;;;;;;6.97;0.40;;;;;;;;;;5074778;28;20025;-87
2023/10/26 03:03:47;;;;;;;0.75;0.50;;;;;;;;;;5081876;28;20020;-86
2023/10/26 03:06:13;;;;;;;0.50;0.45;;;;;;;;;;5061563;28;20039;-85
2023/10/26 03:08:38;;;;;;;0.30;0.30;;;;;;;;;;5049844;28;20108;-87
2023/10/26 03:11:03;;;;;;;0.22;0.22;;;;;;;;;;5062561;28;20013;-84
2023/10/26 03:13:29;;;;;;;0.10;0.10;;;;;;;;;;5071690;28;20197;-86
2023/10/26 03:15:54;;;;;;;1.35;0.32;;;;;;;;;;5044481;28;20028;-86
2023/10/26 03:18:20;;;;;;;0.40;0.40;;;;;;;;;;5082894;28;20069;-87
2023/10/26 03:20:45;;;;;;;0.40;0.35;;;;;;;;;;5072645;28;20037;-85
2023/10/26 03:23:11;;;;;;;0.38;0.38;;;;;;;;;;5057518;28;20031;-86
2023/10/26 03:25:36;;;;;;;2.05;0.38;;;;;;;;;;5036753;28;20104;-84
2023/10/26 03:28:01;;;;;;;1.10;0.38;;;;;;;;;;5064000;28;20021;-88
2023/10/26 03:30:27;;;;;;;2.25;0.45;;;;;;;;;;5080815;28;20366;-85
2023/10/26 03:32:53;;;;;;;2.30;0.43;;;;;;;;;;5061920;28;20033;-86
2023/10/26 03:35:19;;;;;;;0.50;0.43;;;;;;;;;;5066987;28;20029;-88
2023/10/26 03:37:45;;;;;;;1.45;0.45;;;;;;;;;;5068903;28;20028;-86
2023/10/26 03:40:13;;;;;;;0.57;0.57;;;;;;;;;;5069955;28;20025;-87
2023/10/26 03:42:38;;;;;;;2.25;0.85;;;;;;;;;;5066490;28;20135;-87
2023/10/26 03:45:04;;;;;;;0.77;0.77;;;;;;;;;;5050730;28;20021;-84
2023/10/26 03:47:29;;;;;;;0.65;0.43;;;;;;;;;;5071492;28;20053;-86
2023/10/26 03:49:54;;;;;;;0.30;0.30;;;;;;;;;;5064157;28;20054;-86
2023/10/26 03:52:21;;;;;;;0.20;0.20;;;;;;;;;;5036459;28;20052;-86
2023/10/26 03:54:46;;;;;;;1.48;0.30;;;;;;;;;;5064001;28;20036;-87
2023/10/26 03:57:12;;;;;;;1.05;0.40;;;;;;;;;;5064711;28;20035;-87
2023/10/26 03:59:37;;;;;;;0.45;0.45;;;;;;;;;;5062296;28;20048;-83
2023/10/26 04:02:03;;;;;;;0.38;0.38;;;;;;;;;;5053404;28;20047;-86
2023/10/26 04:04:28;;;;;;;1.30;0.63;;;;;;;;;;5080435;28;20390;-86
2023/10/26 04:06:53;;;;;;;0.17;0.17;;;;;;;;;;5052381;28;20033;-84
2023/10/26 04:09:19;;;;;;;0.82;0.52;;;;;;;;;;5072674;28;20032;-86
2023/10/26 04:11:45;;;;;;;0.17;0.17;;;;;;;;;;5070958;28;20040;-85
2023/10/26 04:14:10;;;;;;;0.35;0.35;;;;;;;;;;5061149;28;20032;-84
2023/10/26 04:16:36;;;;;;;2.90;0.55;;;;;;;;;;5075029;28;20032;-87
2023/10/26 04:19:01;;;;;;;0.47;0.40;;;;;;;;;;5053619;28;20023;-87
2023/10/26 04:21:26;;;;;;;0.32;0.32;;;;;;;;;;5100380;28;20039;-87
2023/10/26 04:23:52;;;;;;;0.30;0.30;;;;;;;;;;5058434;28;20024;-88
2023/10/26 04:26:17;;;;;;;0.80;0.40;;;;;;;;;;5064806;28;20032;-86
2023/10/26 04:28:42;;;;;;;2.20;0.45;;;;;;;;;;5065538;28;20421;-87
2023/10/26 04:31:08;;;;;;;0.30;0.30;;;;;;;;;;5073854;28;20103;-86
2023/10/26 04:33:33;;;;;;;1.27;0.40;;;;;;;;;;5049778;28;20025;-86
2023/10/26 04:36:02;;;;;;;0.32;0.25;;;;;;;;;;5088295;28;20531;-85
2023/10/26 04:38:28;;;;;;;0.20;0.20;;;;;;;;;;5079139;28;20465;-85
2023/10/26 04:40:54;;;;;;;1.33;0.63;;;;;;;;;;5057176;28;20479;-86
2023/10/26 04:43:19;;;;;;;0.30;0.30;;;;;;;;;;5048682;28;20028;-88
2023/10/26 04:45:46;;;;;;;0.22;0.22;;;;;;;;;;5045361;28;20070;-85
2023/10/26 04:48:11;;;;;;;2.20;0.38;;;;;;;;;;5065084;28;20028;-87
2023/10/26 04:50:37;;;;;;;0.40;0.40;;;;;;;;;;5075432;28;20036;-86
2023/10/26 04:53:02;;;;;;;0.30;0.30;;;;;;;;;;5071104;28;20021;-85
2023/10/26 04:55:33;;;;;;;0.60;0.35;;;;;;;;;;5083795;28;20375;-87
2023/10/26 04:57:59;;;;;;;0.37;0.37;;;;;;;;;;5067771;28;20020;-88
2023/10/26 05:00:25;;;;;;;2.88;0.60;;;;;;;;;;5068216;28;20031;-87
2023/10/26 05:02:51;;;;;;;1.55;0.45;;;;;;;;;;5080836;28;20078;-86
2023/10/26 05:05:16;;;;;;;0.30;0.30;;;;;;;;;;5073121;28;20028;-87
2023/10/26 05:07:42;;;;;;;7.88;0.60;;;;;;;;;;5044151;28;20031;-86
2023/10/26 05:10:10;;;;;;;0.30;0.30;;;;;;;;;;5045217;28;20036;-87
2023/10/26 05:12:35;;;;;;;0.52;0.52;;;;;;;;;;5083928;28;20493;-87
2023/10/26 05:15:01;;;;;;;0.30;0.30;;;;;;;;;;5039420;28;20029;-85
2023/10/26 05:17:26;;;;;;;0.90;0.50;;;;;;;;;;5070335;28;20035;-83
2023/10/26 05:19:52;;;;;;;0.40;0.40;;;;;;;;;;5083632;28;20153;-86
2023/10/26 05:22:18;;;;;;;0.90;0.43;;;;;;;;;;5062058;28;20055;-86
2023/10/26 05:24:44;;;;;;;0.30;0.30;;;;;;;;;;5073553;28;20036;-87
2023/10/26 05:27:09;;;;;;;0.50;0.50;;;;;;;;;;5055610;28;20029;-85
2023/10/26 05:29:35;;;;;;;0.63;0.45;;;;;;;;;;5076650;28;20016;-86
2023/10/26 05:32:00;;;;;;;0.30;0.30;;;;;;;;;;5069842;28;20020;-86
2023/10/26 05:34:25;;;;;;;4.53;0.50;;;;;;;;;;5070885;28;20028;-85
2023/10/26 05:36:51;;;;;;;0.40;0.40;;;;;;;;;;5055664;28;20040;-86
2023/10/26 05:39:16;;;;;;;1.48;0.70;;;;;;;;;;5063639;28;20467;-85
2023/10/26 05:41:43;;;;;;;0.90;0.43;;;;;;;;;;5044020;28;20021;-86
2023/10/26 05:44:09;;;;;;;0.60;0.40;;;;;;;;;;5052004;28;20031;-85
2023/10/26 05:46:35;;;;;;;1.27;0.40;;;;;;;;;;5079947;28;20029;-85
2023/10/26 05:49:00;;;;;;;0.45;0.38;;;;;;;;;;5074866;28;20034;-86
2023/10/26 05:51:26;;;;;;;0.32;0.32;;;;;;;;;;5064125;28;20028;-86
2023/10/26 05:53:51;;;;;;;0.43;0.43;;;;;;;;;;5066666;28;20076;-86
2023/10/26 05:56:16;;;;;;;1.20;0.70;;;;;;;;;;5055877;28;20028;-86
2023/10/26 05:58:43;;;;;;;0.60;0.60;;;;;;;;;;5062310;28;20406;-87
2023/10/26 06:01:09;;;;;;;0.73;0.50;;;;;;;;;;5073317;28;20081;-86
2023/10/26 06:03:34;;;;;;;0.35;0.30;;;;;;;;;;5081956;28;20072;-86
2023/10/26 06:06:00;;;;;;;0.47;0.45;;;;;;;;;;5069854;28;20078;-85
2023/10/26 06:08:26;;;;;;;2.25;0.80;;;;;;;;;;5061518;28;20051;-86
2023/10/26 06:10:52;;;;;;;5.05;0.70;;;;;;;;;;5068862;28;20563;-87
2023/10/26 06:13:17;;;;;;;0.70;0.60;;;;;;;;;;5064643;28;20039;-87
2023/10/26 06:15:43;;;;;;;0.32;0.32;;;;;;;;;;5068973;28;20021;-88
2023/10/26 06:18:09;;;;;;;0.40;0.40;;;;;;;;;;5065848;28;20189;-86
2023/10/26 06:20:35;;;;;;;0.88;0.45;;;;;;;;;;5065110;28;20371;-86
2023/10/26 06:23:00;;;;;;;0.95;0.60;;;;;;;;;;5064308;28;20532;-85
2023/10/26 06:25:28;;;;;;;1.95;0.68;;;;;;;;;;5057824;28;20020;-85
2023/10/26 06:27:53;;;;;;;0.43;0.43;;;;;;;;;;5073543;28;20024;-86
2023/10/26 06:30:19;;;;;;;0.40;0.40;;;;;;;;;;5059359;28;20421;-87
2023/10/26 06:32:44;;;;;;;2.42;0.45;;;;;;;;;;5069715;28;20028;-86
2023/10/26 06:35:12;;;;;;;2.47;0.43;;;;;;;;;;5058317;28;20087;-88
2023/10/26 06:37:37;;;;;;;1.25;0.52;;;;;;;;;;5064515;28;20035;-86
2023/10/26 06:40:06;;;;;;;0.82;0.80;;;;;;;;;;5051730;28;20048;-87
2023/10/26 06:42:32;;;;;;;1.10;0.50;;;;;;;;;;5036992;28;20110;-85
2023/10/26 06:44:58;;;;;;;0.43;0.43;;;;;;;;;;5055440;28;20661;-86
2023/10/26 06:47:23;;;;;;;1.08;0.70;;;;;;;;;;5074766;28;20039;-86
2023/10/26 06:49:49;;;;;;;0.63;0.63;;;;;;;;;;5078827;28;20100;-85
2023/10/26 06:52:14;;;;;;;0.45;0.45;;;;;;;;;;5071702;28;20043;-87
2023/10/26 06:54:39;;;;;;;1.00;0.60;;;;;;;;;;5050653;28;20082;-84
2023/10/26 06:57:05;;;;;;;2.65;0.73;;;;;;;;;;5063342;28;20024;-84
2023/10/26 06:59:30;;;;;;;0.77;0.77;;;;;;;;;;5063354;28;20017;-84
2023/10/26 07:01:56;;;;;;;0.47;0.47;;;;;;;;;;5069842;28;20025;-83
2023/10/26 07:04:21;;;;;;;0.20;0.20;;;;;;;;;;5069106;28;20025;-83
2023/10/26 07:06:47;;;;;;;1.55;0.80;;;;;;;;;;5066630;28;20083;-84
2023/10/26 07:09:12;;;;;;;3.08;0.68;;;;;;;;;;5055602;28;20032;-83
2023/10/26 07:11:37;;;;;;;1.65;0.70;;;;;;;;;;5045099;28;20047;-83
2023/10/26 07:14:03;;;;;;;0.75;0.73;;;;;;;;;;5083751;28;20027;-83
2023/10/26 07:16:29;;;;;;;0.57;0.50;;;;;;;;;;5075200;28;20020;-83
2023/10/26 07:18:55;;;;;;;0.70;0.70;;;;;;;;;;5076801;28;20155;-83
2023/10/26 07:21:20;;;;;;;0.35;0.32;;;;;;;;;;5071250;28;20025;-84
2023/10/26 07:23:46;;;;;;;0.77;0.60;;;;;;;;;;5079530;28;20031;-82
2023/10/26 07:26:15;;;;;;;0.38;0.38;;;;;;;;;;5088778;28;20025;-84
2023/10/26 07:28:41;;;;;;;1.45;0.52;;;;;;;;;;5057341;28;20036;-85
2023/10/26 07:31:06;;;;;;;3.22;0.60;;;;;;;;;;5053653;28;20021;-84
2023/10/26 07:33:31;;;;;;;0.75;0.52;;;;;;;;;;5074452;28;20081;-83
2023/10/26 07:35:57;;;;;;;0.63;0.60;;;;;;;;;;5086128;28;20231;-84
2023/10/26 07:38:24;;;;;;;1.23;0.60;;;;;;;;;;5087874;28;20051;-84
2023/10/26 07:40:54;;;;;;;0.47;0.47;;;;;;;;;;5039180;28;20025;-84
2023/10/26 07:43:20;;;;;;;0.82;0.60;;;;;;;;;;5068524;28;20024;-83
2023/10/26 07:45:51;;;;;;;0.60;0.60;;;;;;;;;;5059755;28;20043;-84
2023/10/26 07:48:16;;;;;;;1.40;0.60;;;;;;;;;;5067788;28;20016;-84
2023/10/26 07:50:42;;;;;;;1.38;0.80;;;;;;;;;;5074517;28;20206;-84
2023/10/26 07:53:08;;;;;;;0.65;0.65;;;;;;;;;;5060349;28;20029;-84
2023/10/26 07:55:34;;;;;;;0.57;0.50;;;;;;;;;;5064509;28;20101;-84
2023/10/26 07:57:59;;;;;;;0.85;0.77;;;;;;;;;;5050940;28;20416;-83
2023/10/26 08:00:25;;;;;;;5.10;0.63;;;;;;;;;;5048823;28;20440;-83
2023/10/26 08:02:50;;;;;;;0.60;0.60;;;;;;;;;;5077693;28;20389;-85
2023/10/26 08:05:15;;;;;;;0.50;0.50;;;;;;;;;;5072986;28;20024;-84
2023/10/26 08:07:41;;;;;;;0.45;0.45;;;;;;;;;;5064237;28;20025;-83
2023/10/26 08:10:09;;;;;;;0.80;0.80;;;;;;;;;;5061392;28;20547;-84
2023/10/26 08:12:34;;;;;;;0.52;0.40;;;;;;;;;;5070428;28;20151;-83
2023/10/26 08:15:01;;;;;;;1.52;0.85;;;;;;;;;;5061763;28;20066;-84
2023/10/26 08:17:26;;;;;;;0.70;0.70;;;;;;;;;;5075121;28;20028;-83
2023/10/26 08:19:53;;;;;;;0.50;0.50;;;;;;;;;;5070929;28;20047;-84
2023/10/26 08:22:18;;;;;;;0.60;0.60;;;;;;;;;;5077352;28;20036;-85
2023/10/26 08:24:45;;;;;;;0.60;0.60;;;;;;;;;;5080656;28;20024;-85
2023/10/26 08:27:11;;;;;;;2.88;0.88;;;;;;;;;;5079386;28;20017;-86
2023/10/26 08:29:36;;;;;;;2.15;0.55;;;;;;;;;;5077344;28;20025;-86
2023/10/26 08:32:03;;;;;;;2.55;0.90;;;;;;;;;;5085388;28;20058;-86
2023/10/26 08:34:29;;;;;;;1.23;0.85;;;;;;;;;;5059662;28;20505;-86
2023/10/26 08:36:54;;;;;;;2.08;0.50;;;;;;;;;;5058437;28;20088;-85
2023/10/26 08:39:19;;;;;;;1.95;0.45;;;;;;;;;;5081275;28;20135;-85
2023/10/26 08:41:50;;;;;;;1.90;1.02;;;;;;;;;;5065429;28;20028;-85
2023/10/26 08:44:17;;;;;;;0.57;0.57;;;;;;;;;;5055267;28;20055;-85
2023/10/26 08:46:44;;;;;;;0.68;0.68;;;;;;;;;;5064182;28;20021;-85
2023/10/26 08:49:11;;;;;;;0.95;0.82;;;;;;;;;;5039458;28;20027;-85
2023/10/26 08:51:37;;;;;;;0.52;0.52;;;;;;;;;;5059341;28;20097;-84
2023/10/26 08:54:02;;;;;;;3.38;0.70;;;;;;;;;;5042536;28;20094;-85
2023/10/26 08:56:27;;;;;;;0.80;0.65;;;;;;;;;;5063946;28;20037;-88
2023/10/26 08:58:56;;;;;;;3.20;0.93;;;;;;;;;;5073541;28;20104;-86
2023/10/26 09:01:22;;;;;;;2.55;0.90;;;;;;;;;;5049730;28;20025;-88
2023/10/26 09:03:47;;;;;;;1.00;0.90;;;;;;;;;;5070393;28;20635;-87
2023/10/26 09:06:12;;;;;;;0.60;0.60;;;;;;;;;;5082091;28;20036;-87
2023/10/26 09:08:38;;;;;;;10.63;0.95;;;;;;;;;;5074405;28;20029;-87
2023/10/26 09:11:21;;;;;;;1.13;1.02;;;;;;;;;;5062691;28;20017;-88
2023/10/26 09:13:47;;;;;;;0.70;0.70;;;;;;;;;;5045046;28;20036;-87
2023/10/26 09:16:12;;;;;;;5.03;1.00;;;;;;;;;;5048121;28;20040;-86
2023/10/26 09:18:38;;;;;;;1.60;0.88;;;;;;;;;;5086345;28;20478;-88
2023/10/26 09:21:08;;;;;;;3.03;0.98;;;;;;;;;;5072667;28;20262;-87
2023/10/26 09:23:37;;;;;;;1.63;1.52;;;;;;;;;;5063104;28;20025;-87
2023/10/26 09:26:04;;;;;;;1.13;1.02;;;;;;;;;;5078679;28;20017;-88
2023/10/26 09:28:51;;;;;;;2.03;1.02;;;;;;;;;;5056033;28;20020;-87
2023/10/26 09:31:17;;;;;;;2.08;1.15;;;;;;;;;;5069203;28;20032;-88
2023/10/26 09:33:43;;;;;;;2.08;1.50;;;;;;;;;;5070712;28;20025;-88
2023/10/26 09:36:27;;;;;;;1.40;1.30;;;;;;;;;;5054574;28;20636;-86
2023/10/26 09:38:52;;;;;;;2.38;1.30;;;;;;;;;;5078515;28;20024;-86
2023/10/26 09:41:18;;;;;;;2.47;1.48;;;;;;;;;;5073909;28;20029;-88
2023/10/26 09:43:44;;;;;;;1.92;1.52;;;;;;;;;;5073893;28;20020;-88
2023/10/26 09:46:10;;;;;;;2.13;1.23;;;;;;;;;;5065304;28;20016;-88
2023/10/26 09:48:36;;;;;;;1.00;0.90;;;;;;;;;;5054810;28;20020;-88
2023/10/26 09:51:03;;;;;;;2.55;1.50;;;;;;;;;;5045564;28;20031;-88
2023/10/26 09:53:40;;;;;;;5.55;1.73;;;;;;;;;;5043711;28;20020;-88
2023/10/26 09:56:08;;;;;;;2.00;1.48;;;;;;;;;;5066619;28;20441;-87
2023/10/26 09:58:39;;;;;;;2.78;1.02;;;;;;;;;;5043919;28;20386;-87
2023/10/26 10:01:31;;;;;;;1.50;1.08;;;;;;;;;;5047754;28;20028;-87
2023/10/26 10:03:57;;;;;;;;;;;;;;;;;;5062708;28;20029;-87
2023/10/26 10:06:54;;;;;;;2.40;1.33;;;;;;;;;;5066443;28;19915;-87
2023/10/26 10:09:21;;;;;;;1.67;1.35;;;;;;;;;;5061667;28;20036;-87
2023/10/26 10:12:13;;;;;;;3.63;1.75;;;;;;;;;;5063199;28;20024;-87
2023/10/26 10:14:48;;;;;;;1.40;1.30;;;;;;;;;;5036431;28;20056;-88
2023/10/26 10:17:20;;;;;;;1.48;1.38;;;;;;;;;;5049758;28;20036;-88
2023/10/26 10:19:46;;;;;;;1.88;1.70;;;;;;;;;;5066732;28;20032;-88
2023/10/26 10:22:34;;;;;;;3.22;1.80;;;;;;;;;;5039432;28;20035;-87
2023/10/26 10:24:59;;;;;;;1.67;1.50;;;;;;;;;;5065328;28;20044;-88
2023/10/26 10:27:25;;;;;;;1.92;1.52;;;;;;;;;;5044481;28;20048;-88
2023/10/26 10:29:55;;;;;;;1.77;1.60;;;;;;;;;;5053484;28;20021;-88
2023/10/26 10:32:46;;;;;;;2.25;1.60;;;;;;;;;;5054994;28;20513;-88
2023/10/26 10:35:35;;;;;;;2.38;1.60;;;;;;;;;;5075681;28;20095;-88
2023/10/26 10:38:12;;;;;;;2.60;1.25;;;;;;;;;;5064344;28;20036;-89
2023/10/26 10:40:58;;;;;;;1.40;1.30;;;;;;;;;;5044563;28;20020;-88
2023/10/26 10:43:45;;;;;;;2.05;1.50;;;;;;;;;;5046059;28;20036;-88
2023/10/26 10:46:26;;;;;;;2.60;1.50;;;;;;;;;;5055788;28;20021;-89
2023/10/26 10:48:54;;;;;;;1.85;1.58;;;;;;;;;;5053354;28;20517;-88
2023/10/26 10:51:20;;;;;;;2.90;1.48;;;;;;;;;;5070342;28;20040;-88
2023/10/26 10:53:51;;;;;;;1.73;1.63;;;;;;;;;;5049303;28;20020;-88
2023/10/26 10:56:17;;;;;;;2.05;1.67;;;;;;;;;;5072746;28;20036;-88
2023/10/26 10:58:42;;;;;;;2.97;1.80;;;;;;;;;;5049227;28;20025;-88
2023/10/26 11:01:07;;;;;;;1.60;1.50;;;;;;;;;;5043819;28;20048;-88
2023/10/26 11:03:33;;;;;;;1.77;1.50;;;;;;;;;;5054997;28;20557;-89
2023/10/26 11:05:58;;;;;;;3.53;2.50;;;;;;;;;;5056044;28;20033;-89
2023/10/26 11:08:25;;;;;;;3.25;1.98;;;;;;;;;;5048037;28;20021;-88
2023/10/26 11:10:51;;;;;;;1.70;1.60;;;;;;;;;;5054422;28;20016;-88
2023/10/26 11:13:23;;;;;;;1.67;1.48;;;;;;;;;;5071186;28;20032;-88
2023/10/26 11:15:48;;;;;;;1.88;1.42;;;;;;;;;;5076676;28;20016;-89
2023/10/26 11:18:14;;;;;;;2.00;1.50;;;;;;;;;;5060387;28;20067;-88
2023/10/26 11:20:45;;;;;;;1.15;1.08;;;;;;;;;;5070101;28;20385;-89
2023/10/26 11:23:13;;;;;;;1.40;1.30;;;;;;;;;;5060978;28;20495;-88
2023/10/26 11:25:38;;;;;;;1.38;1.27;;;;;;;;;;5071726;28;20044;-88
2023/10/26 11:28:05;;;;;;;1.60;1.50;;;;;;;;;;5055247;28;20016;-89
2023/10/26 11:30:45;;;;;;;1.60;1.50;;;;;;;;;;5069632;28;20032;-88
2023/10/26 11:33:11;;;;;;;2.03;1.20;;;;;;;;;;5065404;28;20013;-89
2023/10/26 11:35:42;;;;;;;1.60;1.23;;;;;;;;;;5081320;28;20032;-89
2023/10/26 11:41:33;;;;;;;1.15;1.02;;;;;;;;;;5053972;28;20098;-87
2023/10/26 11:43:59;;;;;;;1.63;1.52;;;;;;;;;;5070919;28;20019;-88
2023/10/26 11:46:35;;;;;;;1.33;1.25;;;;;;;;;;5055662;28;20017;-87
2023/10/26 11:49:05;;;;;;;1.48;1.38;;;;;;;;;;5055666;28;20060;-88
2023/10/26 11:51:31;;;;;;;1.55;1.45;;;;;;;;;;5051710;28;20098;-89
2023/10/26 11:54:09;;;;;;;1.40;1.30;;;;;;;;;;5078236;28;20141;-89
2023/10/26 11:56:35;;;;;;;3.17;1.55;;;;;;;;;;5063844;28;20044;-89
2023/10/26 11:59:00;;;;;;;1.40;1.30;;;;;;;;;;5068409;28;20477;-88
2023/10/26 12:01:26;;;;;;;1.48;1.38;;;;;;;;;;5071912;28;20392;-89
2023/10/26 12:03:51;;;;;;;1.45;1.35;;;;;;;;;;5059347;28;20534;-89
2023/10/26 12:06:16;;;;;;;1.35;1.25;;;;;;;;;;5066311;28;20028;-89
2023/10/26 12:08:42;;;;;;;1.40;1.30;;;;;;;;;;5049447;28;20165;-90
2023/10/26 12:11:07;;;;;;;2.05;1.60;;;;;;;;;;5067753;28;20031;-89
2023/10/26 12:13:34;;;;;;;2.67;1.40;;;;;;;;;;5072405;28;20089;-90
2023/10/26 12:15:59;;;;;;;1.52;1.30;;;;;;;;;;5058245;28;20444;-89
2023/10/26 12:18:25;;;;;;;1.20;1.10;;;;;;;;;;5069298;28;20484;-89
2023/10/26 12:20:50;;;;;;;1.13;0.98;;;;;;;;;;5049670;28;20103;-88
2023/10/26 12:23:15;;;;;;;1.55;1.20;;;;;;;;;;5068789;28;20033;-89
2023/10/26 12:25:42;;;;;;;0.95;0.95;;;;;;;;;;5056755;28;20024;-89
2023/10/26 12:28:07;;;;;;;1.10;1.02;;;;;;;;;;5065632;28;20106;-89
2023/10/26 12:30:32;;;;;;;0.95;0.85;;;;;;;;;;5070691;28;20056;-89
2023/10/26 12:32:58;;;;;;;1.00;1.00;;;;;;;;;;5072507;28;20444;-88
2023/10/26 12:35:23;;;;;;;1.08;1.08;;;;;;;;;;5078786;28;20081;-89
2023/10/26 12:37:51;;;;;;;1.33;1.23;;;;;;;;;;5073740;28;20389;-89
2023/10/26 12:40:18;;;;;;;1.20;1.10;;;;;;;;;;5069520;28;20021;-89
2023/10/26 12:42:44;;;;;;;1.05;0.95;;;;;;;;;;5041580;28;20478;-88
2023/10/26 12:45:09;;;;;;;1.00;1.00;;;;;;;;;;5048455;28;20040;-88
2023/10/26 12:47:34;;;;;;;1.13;1.02;;;;;;;;;;5058983;28;20046;-89
2023/10/26 12:50:00;;;;;;;0.75;0.75;;;;;;;;;;5068188;28;20103;-90
2023/10/26 12:52:25;;;;;;;1.10;1.00;;;;;;;;;;5066072;28;20031;-89
2023/10/26 12:54:50;;;;;;;2.88;0.90;;;;;;;;;;5068952;28;20016;-90
2023/10/26 12:57:16;;;;;;;0.90;0.90;;;;;;;;;;5058738;28;20020;-90
2023/10/26 12:59:41;;;;;;;0.80;0.80;;;;;;;;;;5062977;28;20021;-89
2023/10/26 13:02:06;;;;;;;1.33;1.23;;;;;;;;;;5067374;28;20017;-89
2023/10/26 13:04:33;;;;;;;1.00;1.00;;;;;;;;;;5055955;28;20043;-88
2023/10/26 13:06:58;;;;;;;2.92;1.67;;;;;;;;;;5069956;28;20351;-89
2023/10/26 13:09:24;;;;;;;1.20;1.10;;;;;;;;;;5057402;28;20493;-89
2023/10/26 13:11:49;;;;;;;1.40;1.30;;;;;;;;;;5074388;28;20039;-89
2023/10/26 13:14:14;;;;;;;1.25;1.15;;;;;;;;;;5073380;28;20024;-88
2023/10/26 13:16:40;;;;;;;1.75;1.27;;;;;;;;;;5047073;28;20024;-88
2023/10/26 13:19:05;;;;;;;1.35;1.25;;;;;;;;;;5071651;28;20055;-88
2023/10/26 13:21:30;;;;;;;2.13;1.80;;;;;;;;;;5061093;28;20124;-88
2023/10/26 13:23:56;;;;;;;0.80;0.80;;;;;;;;;;5061703;28;20016;-89
2023/10/26 13:26:21;;;;;;;0.95;0.90;;;;;;;;;;5072638;28;20096;-89
2023/10/26 13:28:46;;;;;;;1.08;1.08;;;;;;;;;;5068239;28;20089;-89
2023/10/26 13:31:12;;;;;;;1.10;1.10;;;;;;;;;;5076305;28;20027;-88
2023/10/26 13:33:37;;;;;;;1.83;1.50;;;;;;;;;;5056524;28;20040;-86
2023/10/26 13:36:02;;;;;;;2.50;1.30;;;;;;;;;;5066042;28;20028;-87
2023/10/26 13:38:28;;;;;;;1.08;1.08;;;;;;;;;;5067017;28;20115;-89
2023/10/26 13:40:54;;;;;;;1.00;1.00;;;;;;;;;;5061654;28;20021;-89
2023/10/26 13:43:19;;;;;;;1.52;0.90;;;;;;;;;;5044829;28;20036;-88
2023/10/26 13:45:45;;;;;;;1.08;1.00;;;;;;;;;;5062589;28;20100;-89
2023/10/26 13:48:10;;;;;;;1.42;1.33;;;;;;;;;;5044274;28;20055;-88
2023/10/26 13:50:39;;;;;;;1.50;1.40;;;;;;;;;;5063399;28;20108;-88
2023/10/26 13:53:05;;;;;;;2.33;1.58;;;;;;;;;;5050351;28;20017;-88
2023/10/26 13:55:35;;;;;;;2.85;1.48;;;;;;;;;;5069219;28;20260;-90
2023/10/26 13:58:01;;;;;;;1.08;1.08;;;;;;;;;;5094801;28;20024;-88
2023/10/26 14:00:26;;;;;;;4.05;1.55;;;;;;;;;;5089673;28;20078;-89
2023/10/26 14:02:52;;;;;;;1.35;1.25;;;;;;;;;;5064118;28;20031;-89
2023/10/26 14:05:17;;;;;;;2.35;1.48;;;;;;;;;;5060295;28;20521;-89
2023/10/26 14:07:43;;;;;;;2.80;1.70;;;;;;;;;;5073831;28;20035;-89
2023/10/26 14:10:08;;;;;;;2.08;1.88;;;;;;;;;;5073041;28;20024;-89
2023/10/26 14:12:34;;;;;;;1.83;1.63;;;;;;;;;;5066253;28;20112;-89
2023/10/26 14:15:00;;;;;;;1.90;1.80;;;;;;;;;;5045940;28;20552;-89
2023/10/26 14:17:34;;;;;;;3.67;1.73;;;;;;;;;;5083149;28;20077;-88
2023/10/26 14:20:01;;;;;;;2.45;1.63;;;;;;;;;;5074899;28;20045;-89
2023/10/26 14:22:26;;;;;;;2.22;1.92;;;;;;;;;;5051748;28;20089;-90
2023/10/26 14:24:51;;;;;;;1.52;1.42;;;;;;;;;;5085490;28;20028;-89
2023/10/26 14:27:17;;;;;;;2.10;1.48;;;;;;;;;;5074890;28;20028;-88
2023/10/26 14:29:42;;;;;;;4.28;1.48;;;;;;;;;;5047365;28;20025;-88
2023/10/26 14:32:07;;;;;;;2.10;1.92;;;;;;;;;;5075462;28;20076;-88
2023/10/26 14:34:33;;;;;;;2.75;2.08;;;;;;;;;;5078728;28;20445;-89
2023/10/26 14:36:59;;;;;;;2.83;2.05;;;;;;;;;;5065723;28;20039;-89
2023/10/26 14:39:24;;;;;;;1.85;1.75;;;;;;;;;;5070814;28;20080;-88
2023/10/26 14:41:50;;;;;;;2.10;1.90;;;;;;;;;;5074074;28;20065;-89
2023/10/26 14:44:15;;;;;;;3.03;2.10;;;;;;;;;;5073261;28;20081;-89
2023/10/26 14:46:40;;;;;;;3.65;2.17;;;;;;;;;;5053549;28;20029;-89